Racecast

A Central Divisional

Holmdel Park · 5000m · Girls · Compiled · NJ

73 runners from 2 divisions

These divisions were run separately. This is how their times compare, not how they finished — the places and scores below were never contested.

View full meet →

Team scores

Place Team Points 12345 67
1 Rumson-Fair Haven Regional (NJ) 40 2 7 9 10 12 15 23
2 Shore Regional (NJ) 50 3 5 11 13 18 21 26
3 Trinity Hall (NJ) 68 1 8 17 20 22 27 30
4 Monmouth Regional (NJ) 109 4 6 31 32 36
5 Raritan (NJ) 121 16 19 25 28 33 34 35
6 Holmdel (NJ) 142 14 24 29 37 38 39 40

Not scored, fewer than five finishers: Red Bank Catholic (2), Wall (2)

Results

Place Athlete Grade School Time Rating Points Actual race
1 Catherine Bonan 10 Trinity Hall (NJ) 1 19:30.9 135.4 1 1
2 Julia Shanes 12 Rumson-Fair Haven Regional (NJ) 1 19:31.7 135.3 2 2
3 Megan Donlevie 12 Shore Regional (NJ) 1 21:01.9 125.6 3 3
4 Kaylee Rufolo 10 Monmouth Regional (NJ) 1 21:05.4 125.3 4 4
5 Jacqueline Gifford 11 Shore Regional (NJ) 2 21:11.0 124.7 5 5
6 Sarah Thomassen 9 Monmouth Regional (NJ) 2 21:15.4 124.3 6 6
7 Georgia Edwards 12 Rumson-Fair Haven Regional (NJ) 2 21:18.5 124.0 7 7
8 Steele Summers 9 Trinity Hall (NJ) 2 21:24.8 123.4 8 8
9 Mary Applegate 12 Rumson-Fair Haven Regional (NJ) 3 21:28.6 123.0 9 9
10 Olivia Rivera 10 Rumson-Fair Haven Regional (NJ) 4 21:39.8 122.0 10 10
11 Lillian Flor 10 Shore Regional (NJ) 3 21:51.5 120.9 11 11
12 Hannah Nitka 10 Rumson-Fair Haven Regional (NJ) 5 21:57.7 120.3 12 12
13 Shannon Loehr 10 Shore Regional (NJ) 4 21:58.3 120.2 13 13
14 Alexandra Whittle 11 Holmdel (NJ) 1 22:02.6 119.8 14 14
15 Ryan Malone 11 Rumson-Fair Haven Regional (NJ) 6 22:10.6 119.1 15 15
16 Ava Bataglio 10 Red Bank Catholic (NJ) 1 22:13.2 118.9 16
17 Angela Peduto 10 Raritan (NJ) 1 22:15.6 118.7 16 17
18 Lily Meulener 10 Trinity Hall (NJ) 3 22:19.5 118.3 17 18
19 Erin Donlevie 10 Shore Regional (NJ) 5 22:29.9 117.4 18 19
20 Alyssa Villavicencio 11 Raritan (NJ) 2 22:30.5 117.4 19 20
21 Paige Jaenicke 12 Trinity Hall (NJ) 4 22:35.7 116.9 20 21
22 Rebecca Quinn 10 Shore Regional (NJ) 6 22:40.5 116.5 21 22
23 Alexandra Lupu 12 Trinity Hall (NJ) 5 22:45.7 116.1 22 23
24 Cassedy Stypul 10 Rumson-Fair Haven Regional (NJ) 7 22:50.9 115.6 23 24
25 Elena Barcan 10 Holmdel (NJ) 2 22:55.2 115.3 24 25
26 Quinn Cushing 11 Rumson-Fair Haven Regional (NJ) 8 22:55.4 115.2 26
27 Reese Reynolds Malone 9 Rumson-Fair Haven Regional (NJ) 9 22:57.0 115.1 27
28 Linda Vuolo 11 Raritan (NJ) 3 22:59.0 115.0 25 28
29 Rachel James 10 Rumson-Fair Haven Regional (NJ) 10 23:03.9 114.5 29
30 Grace Montanari 9 Shore Regional (NJ) 7 23:10.9 114.0 26 30
31 Eileen Bergin 12 Trinity Hall (NJ) 6 23:24.1 112.9 27 31
32 Riley Lawrence 11 Shore Regional (NJ) 8 23:25.9 112.8 32
33 Hannah Loehr 12 Shore Regional (NJ) 9 23:31.1 112.3 33
34 Kristina O'Brien 11 Raritan (NJ) 4 23:36.0 112.0 28 34
35 Kiera Joyce 12 Holmdel (NJ) 3 23:43.6 111.3 29 35
36 Sophie Pelton 12 Shore Regional (NJ) 10 23:53.2 110.6 36
37 Cadence Zink 11 Trinity Hall (NJ) 7 23:58.5 110.2 30 37
38 Marlene Krueger 10 Rumson-Fair Haven Regional (NJ) 11 24:07.8 109.5 38
39 Allison Sjosward 10 Monmouth Regional (NJ) 3 24:19.4 108.6 31 39
40 Anna Mannino 10 Rumson-Fair Haven Regional (NJ) 12 24:36.0 107.4 1
41 Georgia Watt 10 Rumson-Fair Haven Regional (NJ) 13 24:36.3 107.4 2
42 Annabeth Volk 10 Rumson-Fair Haven Regional (NJ) 14 25:11.8 104.8 3
43 Mia Loxton 9 Monmouth Regional (NJ) 4 25:29.7 103.6 32 40
44 Sarah Hailu 10 Red Bank Catholic (NJ) 2 25:37.3 103.1 41
45 Emma Cassiano 11 Raritan (NJ) 5 25:52.2 102.1 33 42
46 Stephanie Paolini 11 Raritan (NJ) 6 26:13.4 100.8 34 43
47 Mary Grace Cosgrove 9 Rumson-Fair Haven Regional (NJ) 15 26:15.7 100.6 4
48 Caitlin Polo 11 Raritan (NJ) 7 26:35.2 99.4 35 44
49 Isabela Delgado 10 Monmouth Regional (NJ) 5 26:36.9 99.3 36 45
50 Olivia Haney 11 Trinity Hall (NJ) 8 26:40.0 99.1 46
51 Anna Hughes 10 Trinity Hall (NJ) 9 26:45.9 98.7 5
52 Shay Mavorich 10 Rumson-Fair Haven Regional (NJ) 16 26:48.3 98.6 6
53 Molly Mark 12 Trinity Hall (NJ) 10 26:52.4 98.3 7
54 Tessa Scalza 10 Trinity Hall (NJ) 11 27:07.1 97.4 8
55 Trisha Rajan 10 Holmdel (NJ) 4 27:24.0 96.4 37 47
56 Maya Singer 12 Rumson-Fair Haven Regional (NJ) 17 27:30.0 96.1 9
57 Caroline Miele 11 Trinity Hall (NJ) 12 27:52.0 94.8 10
58 Madeline Huang 10 Holmdel (NJ) 5 27:56.3 94.6 38 48
59 Samantha Gervasio 10 Raritan (NJ) 8 27:56.8 94.5 11
60 Paige Antczak 9 Raritan (NJ) 9 27:58.3 94.5 12
61 Parker Gmelich 11 Trinity Hall (NJ) 13 28:15.1 93.5 13
62 Julianna Greco 11 Wall (TX) 1 28:25.3 93.0 49
63 Sophia O Sullivan 10 Wall (TX) 2 28:30.1 92.7 50
64 Maria S Vargas Makrinos 9 Trinity Hall (NJ) 14 29:06.3 90.8 14
65 Madeline Zink 9 Trinity Hall (NJ) 15 29:06.5 90.8 15
66 Sophia Marx 9 Trinity Hall (NJ) 16 29:08.0 90.7 16
67 Lily Kunamneni 10 Holmdel (NJ) 6 29:52.8 88.4 39 51
68 Madison O'Brien 9 Raritan (NJ) 10 30:32.9 86.5 17
69 Maggie Kopec 12 Shore Regional (NJ) 11 31:00.1 85.2 18
70 Lillian Stafford - Holmdel (NJ) 7 31:18.2 84.4 40 19
71 Emma Pedone 11 Trinity Hall (NJ) 17 32:45.3 80.7 20
72 Jenna Yiu 10 Holmdel (NJ) 8 34:14.2 77.2 21
73 Ella Dougherty 12 Trinity Hall (NJ) 18 34:19.2 77.0 22